CYDN

Dauphin Barker Airport

Dauphin, Manitoba, Canada
METAR CYDN 172200Z AUTO 21012G17KT 9SM CLR 28/15 A2994 RMK SLP144 DENSITY ALT 2600FT
Observed Flight Rules
Aug-17 @ 22:00 UTC (36 minutes ago) Visual Flight Rules
Wind Visibility Clouds
210° at 12 knots
 Gusting to 17 knots
9 miles
  • Clear skies
Temperatures Readings
Current 28°C / 82°F
Dewpoint 15°C / 59°F
Humidity 45%
Altimeter 29.94" Hg
Pressure 1014.4 hPa
Elevation 305
METAR CYDN 172200Z AUTO 21012G17KT 9SM CLR 28/15 A2994 RMK SLP144 DENSITY ALT 2600FT
Observed Flight Rules
Aug-17 @ 22:00 UTC
(36 minutes ago)
VFR
Wind Visibility
210° at 12 knots
 Gusting to 17 knots
9 miles
Clouds
  • Clear skies
Temperature Dewpoint
28°C / 82°F 15°C / 59°F
Humidity Altimeter Pressure
45% 29.94" Hg 1014.4 hPa